createdAt,value
2023-03-16T00:01:27.409Z,6.80
2023-03-16T00:03:54.126Z,9.13
2023-03-16T00:06:20.878Z,8.75
2023-03-16T00:08:47.604Z,10.35
2023-03-16T00:11:14.346Z,11.55
2023-03-16T00:13:42.825Z,8.95
2023-03-16T00:16:09.661Z,9.65
2023-03-16T00:18:39.152Z,9.77
2023-03-16T00:21:06.783Z,7.07
2023-03-16T00:23:35.848Z,7.38
2023-03-16T00:26:05.761Z,6.13
2023-03-16T00:28:35.263Z,8.10
2023-03-16T00:31:07.166Z,8.02
2023-03-16T00:33:36.670Z,6.82
2023-03-16T00:36:08.145Z,9.10
2023-03-16T00:38:37.128Z,6.25
2023-03-16T00:41:06.225Z,7.70
2023-03-16T00:43:40.886Z,8.23
2023-03-16T00:46:13.788Z,6.13
2023-03-16T00:48:42.775Z,8.30
2023-03-16T00:51:16.309Z,6.25
2023-03-16T00:53:44.742Z,8.75
2023-03-16T00:56:12.748Z,6.80
2023-03-16T00:58:43.197Z,6.50
2023-03-16T01:01:13.881Z,6.25
2023-03-16T01:03:41.105Z,6.75
2023-03-16T01:06:15.190Z,12.85
2023-03-16T01:08:42.097Z,7.30
2023-03-16T01:11:12.395Z,7.00
2023-03-16T01:13:39.796Z,6.22
2023-03-16T01:16:07.060Z,7.25
2023-03-16T01:18:34.285Z,8.40
2023-03-16T01:21:03.543Z,8.68
2023-03-16T01:23:31.410Z,7.97
2023-03-16T01:25:59.299Z,6.72
2023-03-16T01:28:29.457Z,8.10
2023-03-16T01:31:00.725Z,7.30
2023-03-16T01:33:28.950Z,8.80
2023-03-16T01:35:57.607Z,7.10
2023-03-16T01:38:24.937Z,6.65
2023-03-16T01:40:53.917Z,7.13
2023-03-16T01:43:25.878Z,8.18
2023-03-16T01:46:05.130Z,9.55
2023-03-16T01:48:39.975Z,7.63
2023-03-16T01:51:15.878Z,10.88
2023-03-16T01:53:45.942Z,9.82
2023-03-16T01:56:18.522Z,7.55
2023-03-16T01:58:46.922Z,7.85
2023-03-16T02:01:14.481Z,8.27
2023-03-16T02:03:44.276Z,9.13
2023-03-16T02:06:19.426Z,10.10
2023-03-16T02:08:49.484Z,8.80
2023-03-16T02:11:19.952Z,8.23
2023-03-16T02:13:47.206Z,9.50
2023-03-16T02:16:19.399Z,11.48
2023-03-16T02:18:51.511Z,9.48
2023-03-16T02:21:40.293Z,14.07
2023-03-16T02:24:07.338Z,8.38
2023-03-16T02:26:49.073Z,12.50
2023-03-16T02:29:54.145Z,11.95
2023-03-16T02:32:23.117Z,11.10
2023-03-16T02:34:50.003Z,10.07
2023-03-16T02:37:16.836Z,11.05
2023-03-16T02:39:46.244Z,10.25
2023-03-16T02:42:16.843Z,11.05
2023-03-16T02:44:48.548Z,11.65
2023-03-16T02:47:41.700Z,9.20
2023-03-16T02:50:12.495Z,9.07
2023-03-16T02:52:41.100Z,11.20
2023-03-16T02:55:08.993Z,9.57
2023-03-16T02:57:35.903Z,11.27
2023-03-16T03:00:11.513Z,12.43
2023-03-16T03:02:38.232Z,9.70
2023-03-16T03:05:05.242Z,9.60
2023-03-16T03:07:32.051Z,11.00
2023-03-16T03:09:59.114Z,11.20
2023-03-16T03:12:25.961Z,15.43
2023-03-16T03:14:52.652Z,12.40
2023-03-16T03:17:19.416Z,13.43
2023-03-16T03:19:46.671Z,14.63
2023-03-16T03:22:18.494Z,12.63
2023-03-16T03:24:45.419Z,11.55
2023-03-16T03:27:12.180Z,12.38
2023-03-16T03:29:38.880Z,13.98
2023-03-16T03:32:06.385Z,12.15
2023-03-16T03:34:33.081Z,10.90
2023-03-16T03:36:59.896Z,10.40
2023-03-16T03:39:26.617Z,13.82
2023-03-16T03:41:56.341Z,11.65
2023-03-16T03:44:23.633Z,12.10
2023-03-16T03:46:51.643Z,11.98
2023-03-16T03:49:18.380Z,12.05
2023-03-16T03:51:45.144Z,13.90
2023-03-16T03:54:11.853Z,11.65
2023-03-16T03:56:38.635Z,10.50
2023-03-16T03:59:05.659Z,13.32
2023-03-16T04:01:32.440Z,13.63
2023-03-16T04:03:59.187Z,14.05
2023-03-16T04:06:25.991Z,16.70
2023-03-16T04:08:54.298Z,11.95
2023-03-16T04:11:21.838Z,14.98
2023-03-16T04:13:50.964Z,11.00
2023-03-16T04:16:17.855Z,14.10
2023-03-16T04:18:46.335Z,15.13
2023-03-16T04:21:16.697Z,14.30
2023-03-16T04:23:44.450Z,14.63
2023-03-16T04:26:11.254Z,14.38
2023-03-16T04:28:38.010Z,16.20
2023-03-16T04:31:09.211Z,15.10
2023-03-16T04:33:37.687Z,17.38
2023-03-16T04:36:06.634Z,15.23
2023-03-16T04:38:34.306Z,21.92
2023-03-16T04:41:02.555Z,14.75
2023-03-16T04:43:30.226Z,14.20
2023-03-16T04:45:56.981Z,14.23
2023-03-16T04:48:24.002Z,14.30
2023-03-16T04:50:51.463Z,12.35
2023-03-16T04:53:18.241Z,13.50
2023-03-16T04:55:46.295Z,15.50
2023-03-16T04:58:13.875Z,16.48
2023-03-16T05:00:41.616Z,18.67
2023-03-16T05:03:10.420Z,15.82
2023-03-16T05:05:40.456Z,13.65
2023-03-16T05:08:07.523Z,17.50
2023-03-16T05:10:34.998Z,16.23
2023-03-16T05:13:01.859Z,17.40
2023-03-16T05:15:28.730Z,16.35
2023-03-16T05:17:58.393Z,16.70
2023-03-16T05:20:25.576Z,19.55
2023-03-16T05:22:52.409Z,17.23
2023-03-16T05:25:20.397Z,16.35
2023-03-16T05:27:57.019Z,16.80
2023-03-16T05:30:23.873Z,16.40
2023-03-16T05:32:51.431Z,19.42
2023-03-16T05:35:25.650Z,17.13
2023-03-16T05:37:52.440Z,19.65
2023-03-16T05:40:19.287Z,18.15
2023-03-16T05:42:54.512Z,13.82
2023-03-16T05:45:21.265Z,20.38
2023-03-16T05:47:47.987Z,15.35
2023-03-16T05:50:17.081Z,17.77
2023-03-16T05:52:45.009Z,20.13
2023-03-16T05:55:14.641Z,16.38
2023-03-16T05:57:41.719Z,16.33
2023-03-16T06:00:16.877Z,20.05
2023-03-16T06:02:49.076Z,16.08
2023-03-16T06:05:17.888Z,20.45
2023-03-16T06:07:45.552Z,17.63
2023-03-16T06:10:13.066Z,18.25
2023-03-16T06:12:40.357Z,21.10
2023-03-16T06:15:09.153Z,19.38
2023-03-16T06:17:37.101Z,22.83
2023-03-16T06:20:11.350Z,21.33
2023-03-16T06:22:39.841Z,19.42
2023-03-16T06:25:07.559Z,24.35
2023-03-16T06:27:34.475Z,20.60
2023-03-16T06:30:01.640Z,22.15
2023-03-16T06:32:28.381Z,20.13
2023-03-16T06:34:55.273Z,14.75
2023-03-16T06:37:22.071Z,19.20
2023-03-16T06:39:48.777Z,17.02
2023-03-16T06:42:15.585Z,19.80
2023-03-16T06:44:42.772Z,22.10
2023-03-16T06:47:10.459Z,21.30
2023-03-16T06:49:37.399Z,19.42
2023-03-16T06:52:04.313Z,14.23
2023-03-16T06:54:34.209Z,18.27
2023-03-16T06:57:01.623Z,21.63
2023-03-16T06:59:28.516Z,24.50
2023-03-16T07:01:55.371Z,32.03
2023-03-16T07:04:22.176Z,31.13
2023-03-16T07:06:48.984Z,21.05
2023-03-16T07:09:15.727Z,17.27
2023-03-16T07:11:42.662Z,19.90
2023-03-16T07:14:09.371Z,18.48
2023-03-16T07:16:36.259Z,21.17
2023-03-16T07:19:03.298Z,21.88
2023-03-16T07:21:32.142Z,21.25
2023-03-16T07:23:58.949Z,19.83
2023-03-16T07:26:25.774Z,16.73
2023-03-16T07:28:52.459Z,19.92
2023-03-16T07:31:19.282Z,20.95
2023-03-16T07:33:46.058Z,13.43
2023-03-16T07:36:12.847Z,15.70
2023-03-16T07:38:40.031Z,16.05
2023-03-16T07:41:06.766Z,19.25
2023-03-16T07:43:33.623Z,16.25
2023-03-16T07:46:01.492Z,21.80
2023-03-16T07:48:28.407Z,14.52
2023-03-16T07:50:55.107Z,12.40
2023-03-16T07:53:21.802Z,17.85
2023-03-16T07:55:48.556Z,20.92
2023-03-16T07:58:15.386Z,18.27
2023-03-16T08:00:42.591Z,14.68
2023-03-16T08:03:09.704Z,14.23
2023-03-16T08:05:36.617Z,14.95
2023-03-16T08:08:03.434Z,16.95
2023-03-16T08:10:31.256Z,14.95
2023-03-16T08:12:58.357Z,13.00
2023-03-16T08:15:25.142Z,11.85
2023-03-16T08:17:52.668Z,16.00
2023-03-16T08:20:19.640Z,12.90
2023-03-16T08:22:46.878Z,13.80
2023-03-16T08:25:14.613Z,15.23
2023-03-16T08:27:43.050Z,14.02
2023-03-16T08:30:11.950Z,12.05
2023-03-16T08:32:40.048Z,11.77
2023-03-16T08:35:14.081Z,12.63
2023-03-16T08:37:41.773Z,11.47
2023-03-16T08:40:29.887Z,14.32
2023-03-16T08:42:56.829Z,13.35
2023-03-16T08:45:24.314Z,10.07
2023-03-16T08:47:51.179Z,13.38
2023-03-16T08:50:19.648Z,11.30
2023-03-16T08:52:49.030Z,9.60
2023-03-16T08:55:16.267Z,12.77
2023-03-16T08:57:45.172Z,14.30
2023-03-16T09:00:14.151Z,13.20
2023-03-16T09:02:42.319Z,12.10
2023-03-16T09:05:11.636Z,9.27
2023-03-16T09:07:39.742Z,14.23
2023-03-16T09:10:13.573Z,11.20
2023-03-16T09:12:40.971Z,15.50
2023-03-16T09:15:10.214Z,11.17
2023-03-16T09:17:37.127Z,13.60
2023-03-16T09:20:19.517Z,11.30
2023-03-16T09:22:48.653Z,11.13
2023-03-16T09:25:15.582Z,11.00
2023-03-16T09:27:42.756Z,9.53
2023-03-16T09:30:10.440Z,11.30
2023-03-16T09:32:37.544Z,12.20
2023-03-16T09:35:06.287Z,9.70
2023-03-16T09:37:44.621Z,13.60
2023-03-16T09:40:21.659Z,10.00
2023-03-16T09:43:10.909Z,12.80
2023-03-16T09:46:16.519Z,10.37
2023-03-16T09:48:43.891Z,12.93
2023-03-16T09:51:22.988Z,9.63
2023-03-16T09:53:56.609Z,10.67
2023-03-16T09:56:33.522Z,12.10
2023-03-16T09:59:00.574Z,13.53
2023-03-16T10:01:48.220Z,10.83
2023-03-16T10:04:33.592Z,10.20
2023-03-16T10:07:15.484Z,10.30
2023-03-16T10:10:05.412Z,8.60
2023-03-16T10:12:41.464Z,9.10
2023-03-16T10:15:17.714Z,9.40
2023-03-16T10:18:15.255Z,9.97
2023-03-16T10:20:42.325Z,8.50
2023-03-16T10:23:20.788Z,8.73
2023-03-16T10:25:49.892Z,8.83
2023-03-16T10:28:23.301Z,13.60
2023-03-16T10:30:54.527Z,8.17
2023-03-16T10:33:36.620Z,7.73
2023-03-16T10:36:12.471Z,12.33
2023-03-16T10:38:58.845Z,11.10
2023-03-16T10:41:37.327Z,7.03
2023-03-16T10:44:15.478Z,5.67
2023-03-16T10:46:48.744Z,8.57
2023-03-16T10:49:25.895Z,5.87
2023-03-16T10:51:57.144Z,5.10
2023-03-16T10:54:34.417Z,7.13
2023-03-16T10:57:13.856Z,5.93
2023-03-16T10:59:40.595Z,8.30
2023-03-16T11:02:31.915Z,6.70
2023-03-16T11:04:58.984Z,5.60
2023-03-16T11:07:25.740Z,4.03
2023-03-16T11:09:54.743Z,7.07
2023-03-16T11:12:28.879Z,4.00
2023-03-16T11:15:02.508Z,9.93
2023-03-16T11:17:38.212Z,5.80
2023-03-16T11:20:17.530Z,6.87
2023-03-16T11:22:47.183Z,7.67
2023-03-16T11:25:17.141Z,5.60
2023-03-16T11:28:12.082Z,5.90
2023-03-16T11:30:44.892Z,5.90
2023-03-16T11:33:17.074Z,7.03
2023-03-16T11:36:00.397Z,5.93
2023-03-16T11:38:47.510Z,7.30
2023-03-16T11:41:45.757Z,7.80
2023-03-16T11:44:44.725Z,5.30
2023-03-16T11:47:38.582Z,4.70
2023-03-16T11:50:14.762Z,4.47
2023-03-16T11:53:18.306Z,7.40
2023-03-16T11:56:09.737Z,7.40
2023-03-16T11:59:00.676Z,10.43
2023-03-16T12:02:00.881Z,6.63
2023-03-16T12:05:04.508Z,7.87
2023-03-16T12:08:12.592Z,6.47
2023-03-16T12:10:54.710Z,5.13
2023-03-16T12:13:36.058Z,7.73
2023-03-16T12:16:16.998Z,6.03
2023-03-16T12:19:25.686Z,7.50
2023-03-16T12:22:18.585Z,4.77
2023-03-16T12:24:47.089Z,10.23
2023-03-16T12:27:36.617Z,6.47
2023-03-16T12:30:13.598Z,7.13
2023-03-16T12:32:50.384Z,5.97
2023-03-16T12:35:35.984Z,5.70
2023-03-16T12:38:37.383Z,5.00
2023-03-16T12:41:39.103Z,14.20
2023-03-16T12:44:21.128Z,10.80
2023-03-16T12:47:24.000Z,3.90
2023-03-16T12:49:52.078Z,5.20
2023-03-16T12:52:18.863Z,5.27
2023-03-16T12:55:15.482Z,5.20
2023-03-16T12:57:43.886Z,3.97
2023-03-16T13:00:13.183Z,9.47
2023-03-16T13:02:45.971Z,9.30
2023-03-16T13:05:19.310Z,10.20
2023-03-16T13:07:52.362Z,5.23
2023-03-16T13:10:21.050Z,5.47
2023-03-16T13:12:48.564Z,9.53
2023-03-16T13:15:22.165Z,4.90
2023-03-16T13:18:02.388Z,4.50
2023-03-16T13:20:34.990Z,3.87
2023-03-16T13:23:17.293Z,3.70
2023-03-16T13:26:05.796Z,6.23
2023-03-16T13:28:36.658Z,5.23
2023-03-16T13:31:04.858Z,5.63
2023-03-16T13:33:36.948Z,4.83
2023-03-16T13:36:06.394Z,4.70
2023-03-16T13:38:33.316Z,5.77
2023-03-16T13:41:11.714Z,6.10
2023-03-16T13:43:43.808Z,6.57
2023-03-16T13:46:18.564Z,6.80
2023-03-16T13:48:48.219Z,5.80
2023-03-16T13:51:18.213Z,4.30
2023-03-16T13:53:45.507Z,4.23
2023-03-16T13:56:18.802Z,5.33
2023-03-16T13:58:48.893Z,5.47
2023-03-16T14:01:26.108Z,6.03
2023-03-16T14:03:55.470Z,5.40
2023-03-16T14:06:31.415Z,5.53
2023-03-16T14:09:04.513Z,6.57
2023-03-16T14:11:31.469Z,4.30
2023-03-16T14:14:00.545Z,4.50
2023-03-16T14:16:29.811Z,8.30
2023-03-16T14:19:07.940Z,4.87
2023-03-16T14:21:35.197Z,3.90
2023-03-16T14:24:04.852Z,6.63
2023-03-16T14:26:48.354Z,6.57
2023-03-16T14:29:31.480Z,8.50
2023-03-16T14:32:00.258Z,8.60
2023-03-16T14:34:31.244Z,3.87
2023-03-16T14:37:13.051Z,4.73
2023-03-16T14:39:43.554Z,4.60
2023-03-16T14:42:25.864Z,8.27
2023-03-16T14:44:52.802Z,9.53
2023-03-16T14:47:26.183Z,6.90
2023-03-16T14:49:53.366Z,6.47
2023-03-16T14:52:40.648Z,6.80
2023-03-16T14:55:14.663Z,6.77
2023-03-16T14:57:42.891Z,4.80
2023-03-16T15:00:12.670Z,4.40
2023-03-16T15:02:42.158Z,7.60
2023-03-16T15:05:13.506Z,4.50
2023-03-16T15:07:45.337Z,4.93
2023-03-16T15:10:25.474Z,5.27
2023-03-16T15:13:04.145Z,5.43
2023-03-16T15:15:31.755Z,2.90
2023-03-16T15:17:59.256Z,5.13
2023-03-16T15:20:31.780Z,4.67
2023-03-16T15:22:59.375Z,5.23
2023-03-16T15:25:37.251Z,4.17
2023-03-16T15:28:21.517Z,8.73
2023-03-16T15:30:52.585Z,6.83
2023-03-16T15:33:20.198Z,4.33
2023-03-16T15:35:49.428Z,6.70
2023-03-16T15:38:21.546Z,4.93
2023-03-16T15:40:51.238Z,7.23
2023-03-16T15:43:20.480Z,6.27
2023-03-16T15:45:47.889Z,6.20
2023-03-16T15:48:16.371Z,5.10
2023-03-16T15:50:56.507Z,6.97
2023-03-16T15:53:34.112Z,5.60
2023-03-16T15:56:06.582Z,6.90
2023-03-16T15:58:35.244Z,5.40
2023-03-16T16:01:03.915Z,6.75
2023-03-16T16:03:31.023Z,5.20
2023-03-16T16:05:57.783Z,5.70
2023-03-16T16:08:24.730Z,6.93
2023-03-16T16:10:53.433Z,6.30
2023-03-16T16:13:37.425Z,4.17
2023-03-16T16:16:13.929Z,5.20
2023-03-16T16:18:41.279Z,5.83
2023-03-16T16:21:15.964Z,5.13
2023-03-16T16:23:43.043Z,6.43
2023-03-16T16:26:48.918Z,4.80
2023-03-16T16:29:30.653Z,5.10
2023-03-16T16:31:57.568Z,4.60
2023-03-16T16:34:25.365Z,5.43
2023-03-16T16:36:56.009Z,6.17
2023-03-16T16:39:23.351Z,6.60
2023-03-16T16:41:52.195Z,6.20
2023-03-16T16:44:23.575Z,7.70
2023-03-16T16:46:52.076Z,4.13
2023-03-16T16:49:20.188Z,4.87
2023-03-16T16:51:47.505Z,7.23
2023-03-16T16:54:23.335Z,4.83
2023-03-16T16:56:53.117Z,4.93
2023-03-16T16:59:26.112Z,5.60
2023-03-16T17:01:59.265Z,4.30
2023-03-16T17:04:29.317Z,3.90
2023-03-16T17:06:59.761Z,6.00
2023-03-16T17:09:28.585Z,5.33
2023-03-16T17:11:58.741Z,5.60
2023-03-16T17:14:28.288Z,5.90
2023-03-16T17:16:56.165Z,6.93
2023-03-16T17:19:28.042Z,8.00
2023-03-16T17:21:57.428Z,7.20
2023-03-16T17:24:24.904Z,6.30
2023-03-16T17:26:55.081Z,6.53
2023-03-16T17:29:31.376Z,5.80
2023-03-16T17:32:01.478Z,5.50
2023-03-16T17:34:29.587Z,8.10
2023-03-16T17:36:56.818Z,6.27
2023-03-16T17:39:29.033Z,6.47
2023-03-16T17:42:05.164Z,6.70
2023-03-16T17:44:40.020Z,14.53
2023-03-16T17:47:13.183Z,6.83
2023-03-16T17:49:40.343Z,6.80
2023-03-16T17:52:23.509Z,7.10
2023-03-16T17:54:52.149Z,7.57
2023-03-16T17:57:24.482Z,9.07
2023-03-16T17:59:52.145Z,10.47
2023-03-16T18:02:49.742Z,8.70
2023-03-16T18:05:22.146Z,8.50
2023-03-16T18:07:49.501Z,6.63
2023-03-16T18:10:20.202Z,8.57
2023-03-16T18:12:51.069Z,11.90
2023-03-16T18:15:18.939Z,10.67
2023-03-16T18:17:46.467Z,12.20
2023-03-16T18:20:22.849Z,11.70
2023-03-16T18:22:50.572Z,9.10
2023-03-16T18:25:42.055Z,10.40
2023-03-16T18:28:10.193Z,9.83
2023-03-16T18:30:38.692Z,8.27
2023-03-16T18:33:22.149Z,9.30
2023-03-16T18:35:49.833Z,7.53
2023-03-16T18:38:37.415Z,7.33
2023-03-16T18:41:19.603Z,9.63
2023-03-16T18:43:47.318Z,10.60
2023-03-16T18:46:32.515Z,7.50
2023-03-16T18:49:02.189Z,9.07
2023-03-16T18:51:30.264Z,11.10
2023-03-16T18:53:57.586Z,8.20
2023-03-16T18:56:27.147Z,9.83
2023-03-16T18:58:55.540Z,6.93
2023-03-16T19:01:32.250Z,12.07
2023-03-16T19:04:01.635Z,7.43
2023-03-16T19:06:31.730Z,7.70
2023-03-16T19:09:04.093Z,8.03
2023-03-16T19:11:31.433Z,9.63
2023-03-16T19:13:58.246Z,7.73
2023-03-16T19:16:25.078Z,9.80
2023-03-16T19:18:51.983Z,6.67
2023-03-16T19:21:22.904Z,6.30
2023-03-16T19:24:02.978Z,5.97
2023-03-16T19:26:33.199Z,7.80
2023-03-16T19:29:01.572Z,8.00
2023-03-16T19:31:30.727Z,7.22
2023-03-16T19:33:58.558Z,10.50
2023-03-16T19:36:33.787Z,11.85
2023-03-16T19:39:00.775Z,6.70
2023-03-16T19:41:31.278Z,12.25
2023-03-16T19:44:05.642Z,10.23
2023-03-16T19:46:32.330Z,6.57
2023-03-16T19:48:59.187Z,9.00
2023-03-16T19:51:29.038Z,7.70
2023-03-16T19:53:56.197Z,8.50
2023-03-16T19:56:25.590Z,9.65
2023-03-16T19:58:54.554Z,8.17
2023-03-16T20:01:32.145Z,6.20
2023-03-16T20:03:59.751Z,7.97
2023-03-16T20:06:27.334Z,7.60
2023-03-16T20:08:54.121Z,7.37
2023-03-16T20:11:29.852Z,7.00
2023-03-16T20:13:57.984Z,8.23
2023-03-16T20:16:28.394Z,9.98
2023-03-16T20:18:57.933Z,7.63
2023-03-16T20:21:24.869Z,7.00
2023-03-16T20:23:53.129Z,17.63
2023-03-16T20:26:32.754Z,7.80
2023-03-16T20:29:00.962Z,8.32
2023-03-16T20:31:31.347Z,7.97
2023-03-16T20:33:58.860Z,5.90
2023-03-16T20:36:26.422Z,7.07
2023-03-16T20:38:53.245Z,7.43
2023-03-16T20:41:27.681Z,5.82
2023-03-16T20:43:56.965Z,6.90
2023-03-16T20:46:27.855Z,8.70
2023-03-16T20:48:55.731Z,7.30
2023-03-16T20:51:23.518Z,7.20
2023-03-16T20:53:50.645Z,6.65
2023-03-16T20:56:23.383Z,7.77
2023-03-16T20:58:51.227Z,9.10
2023-03-16T21:01:21.610Z,9.60
2023-03-16T21:03:50.419Z,10.33
2023-03-16T21:06:32.877Z,9.05
2023-03-16T21:09:03.326Z,7.15
2023-03-16T21:11:39.340Z,6.60
2023-03-16T21:14:13.338Z,6.60
2023-03-16T21:16:40.406Z,7.93
2023-03-16T21:19:15.603Z,7.13
2023-03-16T21:21:42.433Z,6.95
2023-03-16T21:24:09.307Z,8.60
2023-03-16T21:26:37.428Z,7.18
2023-03-16T21:29:08.295Z,8.90
2023-03-16T21:31:35.473Z,8.70
2023-03-16T21:34:03.594Z,7.43
2023-03-16T21:36:30.462Z,6.65
2023-03-16T21:38:57.287Z,9.10
2023-03-16T21:41:24.050Z,7.50
2023-03-16T21:43:51.898Z,7.23
2023-03-16T21:46:25.573Z,11.60
2023-03-16T21:48:55.752Z,7.57
2023-03-16T21:51:29.099Z,8.35
2023-03-16T21:53:56.010Z,6.90
2023-03-16T21:56:25.898Z,10.05
2023-03-16T21:58:53.724Z,8.18
2023-03-16T22:01:32.289Z,6.57
2023-03-16T22:04:04.478Z,10.93
2023-03-16T22:06:31.554Z,8.05
2023-03-16T22:08:59.829Z,9.05
2023-03-16T22:11:28.815Z,8.60
2023-03-16T22:13:57.426Z,6.55
2023-03-16T22:16:27.940Z,7.80
2023-03-16T22:18:56.951Z,6.75
2023-03-16T22:21:29.523Z,6.35
2023-03-16T22:23:57.776Z,7.45
2023-03-16T22:26:25.035Z,8.30
2023-03-16T22:28:52.661Z,6.43
2023-03-16T22:31:47.026Z,8.05
2023-03-16T22:34:42.105Z,14.27
2023-03-16T22:37:11.012Z,10.13
2023-03-16T22:39:39.895Z,8.48
2023-03-16T22:42:32.675Z,8.63
2023-03-16T22:44:59.874Z,14.27
2023-03-16T22:47:29.165Z,10.00
2023-03-16T22:49:56.042Z,8.23
2023-03-16T22:52:29.397Z,11.63
2023-03-16T22:54:57.674Z,8.30
2023-03-16T22:57:24.917Z,8.32
2023-03-16T22:59:52.718Z,7.07
2023-03-16T23:02:24.253Z,7.03
2023-03-16T23:04:51.150Z,9.20
2023-03-16T23:07:18.253Z,11.98
2023-03-16T23:09:45.700Z,5.57
2023-03-16T23:12:20.469Z,8.07
2023-03-16T23:14:47.725Z,7.57
2023-03-16T23:17:20.120Z,7.38
2023-03-16T23:19:48.110Z,9.23
2023-03-16T23:22:15.467Z,10.55
2023-03-16T23:24:42.509Z,8.13
2023-03-16T23:27:22.271Z,8.93
2023-03-16T23:29:49.502Z,7.65
2023-03-16T23:32:17.166Z,8.43
2023-03-16T23:34:44.043Z,9.75
2023-03-16T23:37:11.371Z,7.22
2023-03-16T23:39:38.156Z,9.23
2023-03-16T23:42:05.483Z,8.55
2023-03-16T23:44:32.484Z,9.10
2023-03-16T23:47:00.585Z,8.95
2023-03-16T23:49:32.880Z,8.73
2023-03-16T23:52:01.583Z,10.55
2023-03-16T23:54:31.333Z,8.02
2023-03-16T23:56:58.183Z,10.52
2023-03-16T23:59:26.672Z,10.18
